createdAt,value
2022-10-08T00:01:20.575Z,17.95
2022-10-08T00:03:51.129Z,21.63
2022-10-08T00:06:24.161Z,20.92
2022-10-08T00:11:31.688Z,18.95
2022-10-08T00:13:58.960Z,18.88
2022-10-08T00:16:48.146Z,19.73
2022-10-08T00:19:16.054Z,20.48
2022-10-08T00:21:46.033Z,18.00
2022-10-08T00:24:15.538Z,19.05
2022-10-08T00:26:44.271Z,16.67
2022-10-08T00:29:14.563Z,21.45
2022-10-08T00:31:44.452Z,17.73
2022-10-08T00:34:18.225Z,22.08
2022-10-08T00:36:45.608Z,22.25
2022-10-08T00:39:18.648Z,21.55
2022-10-08T00:41:49.321Z,18.73
2022-10-08T00:44:43.121Z,17.05
2022-10-08T00:47:23.122Z,20.05
2022-10-08T00:49:56.295Z,19.17
2022-10-08T00:52:26.872Z,21.85
2022-10-08T00:54:54.602Z,22.17
2022-10-08T00:57:22.627Z,21.98
2022-10-08T00:59:49.963Z,22.25
2022-10-08T01:02:19.970Z,19.20
2022-10-08T01:04:47.754Z,19.05
2022-10-08T01:07:29.910Z,22.23
2022-10-08T01:10:23.759Z,19.63
2022-10-08T01:13:19.965Z,19.27
2022-10-08T01:15:59.027Z,21.80
2022-10-08T01:18:53.073Z,23.60
2022-10-08T01:21:40.479Z,24.25
2022-10-08T01:24:07.631Z,20.42
2022-10-08T01:26:51.606Z,24.67
2022-10-08T01:29:22.528Z,23.08
2022-10-08T01:32:01.219Z,22.27
2022-10-08T01:34:40.205Z,25.23
2022-10-08T01:37:11.880Z,23.75
2022-10-08T01:39:40.744Z,22.55
2022-10-08T01:42:11.009Z,26.20
2022-10-08T01:44:48.948Z,30.52
2022-10-08T01:47:21.781Z,25.58
2022-10-08T01:49:53.203Z,26.52
2022-10-08T01:52:33.460Z,26.42
2022-10-08T01:55:08.374Z,34.85
2022-10-08T01:57:37.980Z,25.35
2022-10-08T02:00:08.876Z,24.63
2022-10-08T02:02:38.633Z,24.60
2022-10-08T02:05:06.670Z,25.58
2022-10-08T02:07:38.006Z,23.02
2022-10-08T02:10:16.931Z,22.10
2022-10-08T02:12:45.284Z,24.08
2022-10-08T02:15:36.317Z,22.35
2022-10-08T02:18:17.968Z,23.25
2022-10-08T02:20:55.268Z,23.10
2022-10-08T02:23:37.973Z,24.83
2022-10-08T02:26:20.118Z,26.00
2022-10-08T02:29:01.064Z,25.40
2022-10-08T02:31:52.339Z,28.15
2022-10-08T02:34:44.664Z,30.13
2022-10-08T02:37:20.293Z,30.75
2022-10-08T02:39:53.661Z,29.25
2022-10-08T02:42:24.360Z,31.52
2022-10-08T02:45:06.572Z,26.95
2022-10-08T02:47:38.683Z,32.05
2022-10-08T02:50:11.957Z,30.90
2022-10-08T02:52:43.579Z,34.38
2022-10-08T02:55:34.364Z,30.58
2022-10-08T02:58:06.199Z,33.60
2022-10-08T03:00:39.166Z,33.70
2022-10-08T03:03:15.458Z,32.73
2022-10-08T03:05:43.856Z,31.98
2022-10-08T03:08:13.674Z,33.28
2022-10-08T03:10:43.708Z,36.80
2022-10-08T03:13:12.639Z,33.03
2022-10-08T03:15:42.750Z,33.03
2022-10-08T03:18:12.362Z,35.67
2022-10-08T03:20:49.918Z,39.35
2022-10-08T03:23:18.888Z,32.78
2022-10-08T03:25:46.360Z,34.47
2022-10-08T03:28:15.638Z,32.72
2022-10-08T03:30:42.916Z,32.22
2022-10-08T03:33:12.877Z,33.97
2022-10-08T03:35:45.466Z,36.47
2022-10-08T03:38:14.513Z,33.30
2022-10-08T03:40:53.017Z,37.03
2022-10-08T03:43:20.408Z,39.17
2022-10-08T03:45:52.402Z,34.80
2022-10-08T03:48:21.682Z,38.28
2022-10-08T03:50:54.201Z,36.58
2022-10-08T03:53:24.635Z,39.63
2022-10-08T03:55:52.490Z,38.78
2022-10-08T03:58:19.962Z,42.85
2022-10-08T04:00:58.572Z,48.25
2022-10-08T04:03:26.862Z,43.80
2022-10-08T04:05:56.874Z,50.20
2022-10-08T04:08:24.230Z,45.78
2022-10-08T04:10:52.001Z,43.10
2022-10-08T04:13:19.759Z,37.80
2022-10-08T04:15:49.314Z,38.53
2022-10-08T04:18:17.454Z,38.20
2022-10-08T04:20:44.780Z,37.92
2022-10-08T04:23:12.558Z,39.30
2022-10-08T04:25:49.342Z,38.97
2022-10-08T04:28:16.462Z,39.55
2022-10-08T04:30:43.981Z,39.88
2022-10-08T04:33:13.467Z,36.30
2022-10-08T04:35:40.517Z,35.67
2022-10-08T04:38:10.182Z,36.00
2022-10-08T04:40:37.310Z,38.58
2022-10-08T04:43:04.301Z,37.75
2022-10-08T04:45:31.640Z,38.47
2022-10-08T04:48:01.074Z,37.55
2022-10-08T04:50:28.100Z,32.92
2022-10-08T04:52:57.849Z,37.83
2022-10-08T04:55:25.057Z,36.38
2022-10-08T04:57:52.212Z,40.67
2022-10-08T05:00:19.805Z,38.88
2022-10-08T05:02:47.325Z,40.63
2022-10-08T05:05:14.599Z,39.83
2022-10-08T05:07:46.749Z,39.15
2022-10-08T05:10:16.042Z,44.47
2022-10-08T05:12:43.800Z,41.22
2022-10-08T05:15:13.194Z,43.45
2022-10-08T05:17:44.901Z,42.47
2022-10-08T05:20:14.675Z,41.80
2022-10-08T05:22:44.646Z,43.55
2022-10-08T05:25:12.102Z,42.90
2022-10-08T05:27:39.535Z,46.85
2022-10-08T05:30:07.322Z,44.30
2022-10-08T05:32:34.582Z,44.17
2022-10-08T05:35:01.767Z,43.50
2022-10-08T05:37:28.933Z,45.30
2022-10-08T05:39:56.154Z,43.55
2022-10-08T05:42:26.028Z,48.38
2022-10-08T05:44:53.222Z,42.60
2022-10-08T05:47:20.544Z,47.05
2022-10-08T05:49:49.972Z,45.05
2022-10-08T05:52:17.391Z,44.40
2022-10-08T05:54:44.597Z,44.92
2022-10-08T05:57:11.721Z,40.58
2022-10-08T05:59:38.722Z,42.78
2022-10-08T06:02:06.633Z,37.35
2022-10-08T06:04:36.588Z,42.10
2022-10-08T06:07:03.707Z,45.65
2022-10-08T06:09:31.072Z,45.80
2022-10-08T06:11:58.310Z,35.75
2022-10-08T06:14:25.306Z,33.65
2022-10-08T06:16:52.580Z,33.05
2022-10-08T06:19:20.042Z,28.08
2022-10-08T06:21:47.522Z,27.73
2022-10-08T06:24:14.953Z,28.33
2022-10-08T06:26:44.026Z,34.33
2022-10-08T06:29:17.383Z,35.08
2022-10-08T06:31:46.157Z,33.90
2022-10-08T06:34:15.489Z,31.58
2022-10-08T06:36:42.568Z,31.02
2022-10-08T06:39:12.835Z,24.73
2022-10-08T06:41:39.933Z,24.73
2022-10-08T06:44:14.677Z,22.17
2022-10-08T06:46:45.372Z,24.77
2022-10-08T06:49:13.069Z,26.55
2022-10-08T06:51:40.358Z,25.48
2022-10-08T06:54:08.748Z,21.05
2022-10-08T06:56:41.795Z,26.67
2022-10-08T06:59:09.451Z,23.40
2022-10-08T07:01:36.886Z,24.25
2022-10-08T07:04:05.229Z,23.40
2022-10-08T07:06:32.962Z,24.42
2022-10-08T07:09:03.313Z,24.60
2022-10-08T07:11:31.358Z,32.30
2022-10-08T07:13:59.316Z,24.95
2022-10-08T07:16:29.865Z,26.10
2022-10-08T07:18:57.763Z,26.45
2022-10-08T07:21:28.865Z,28.33
2022-10-08T07:23:56.557Z,23.85
2022-10-08T07:26:26.766Z,30.52
2022-10-08T07:28:55.693Z,25.23
2022-10-08T07:31:26.432Z,26.38
2022-10-08T07:33:53.979Z,24.25
2022-10-08T07:36:23.740Z,30.92
2022-10-08T07:38:55.693Z,23.77
2022-10-08T07:41:23.869Z,25.10
2022-10-08T07:43:55.446Z,26.00
2022-10-08T07:46:25.191Z,25.30
2022-10-08T07:48:53.573Z,28.23
2022-10-08T07:51:21.010Z,35.03
2022-10-08T07:53:48.504Z,27.13
2022-10-08T07:56:17.920Z,27.60
2022-10-08T07:58:48.324Z,31.13
2022-10-08T08:01:21.531Z,28.90
2022-10-08T08:03:57.016Z,27.92
2022-10-08T08:06:26.733Z,24.40
2022-10-08T08:08:57.090Z,23.77
2022-10-08T08:11:24.931Z,20.25
2022-10-08T08:13:52.984Z,22.05
2022-10-08T08:16:23.148Z,20.40
2022-10-08T08:18:52.992Z,20.48
2022-10-08T08:21:29.010Z,20.08
2022-10-08T08:24:03.750Z,18.13
2022-10-08T08:26:33.130Z,19.98
2022-10-08T08:29:03.056Z,22.27
2022-10-08T08:31:33.017Z,20.05
2022-10-08T08:34:05.773Z,20.95
2022-10-08T08:36:36.181Z,19.33
2022-10-08T08:39:04.546Z,20.27
2022-10-08T08:41:38.101Z,18.42
2022-10-08T08:44:22.110Z,24.58
2022-10-08T08:47:00.034Z,21.20
2022-10-08T08:49:43.358Z,32.00
2022-10-08T08:54:41.028Z,19.75
2022-10-08T08:57:31.250Z,19.13
2022-10-08T09:00:32.554Z,18.65
2022-10-08T09:03:06.634Z,20.50
2022-10-08T09:05:40.732Z,18.63
2022-10-08T09:08:11.040Z,19.63
2022-10-08T09:10:59.203Z,20.17
2022-10-08T09:13:44.108Z,20.95
2022-10-08T09:16:14.016Z,21.55
2022-10-08T09:18:51.708Z,20.75
2022-10-08T09:21:22.037Z,20.45
2022-10-08T09:23:49.101Z,19.13
2022-10-08T09:26:26.614Z,26.48
2022-10-08T09:28:59.400Z,20.98
2022-10-08T09:31:36.857Z,22.10
2022-10-08T09:34:12.458Z,21.52
2022-10-08T09:36:52.809Z,18.77
2022-10-08T09:39:23.592Z,20.65
2022-10-08T09:42:18.104Z,17.70
2022-10-08T09:44:46.936Z,19.67
2022-10-08T09:47:16.889Z,20.08
2022-10-08T09:49:45.185Z,20.10
2022-10-08T09:52:17.356Z,21.85
2022-10-08T09:55:08.545Z,20.13
2022-10-08T09:57:44.282Z,23.58
2022-10-08T10:00:28.422Z,19.90
2022-10-08T10:02:57.770Z,20.73
2022-10-08T10:05:31.140Z,23.85
2022-10-08T10:08:01.029Z,21.85
2022-10-08T10:10:45.615Z,24.25
2022-10-08T10:13:33.274Z,27.30
2022-10-08T10:16:11.518Z,27.90
2022-10-08T10:18:50.856Z,29.13
2022-10-08T10:21:35.162Z,29.88
2022-10-08T10:24:33.013Z,28.83
2022-10-08T10:27:08.290Z,27.08
2022-10-08T10:30:02.911Z,27.45
2022-10-08T10:33:10.782Z,27.88
2022-10-08T10:35:48.936Z,29.48
2022-10-08T10:38:20.696Z,27.80
2022-10-08T10:41:01.812Z,25.25
2022-10-08T10:43:48.188Z,27.08
2022-10-08T10:46:24.102Z,28.10
2022-10-08T10:48:51.235Z,31.33
2022-10-08T10:51:29.224Z,31.60
2022-10-08T10:54:38.139Z,31.85
2022-10-08T10:57:18.097Z,30.83
2022-10-08T10:59:52.799Z,29.85
2022-10-08T11:03:02.542Z,32.38
2022-10-08T11:05:33.380Z,33.55
2022-10-08T11:08:43.908Z,32.35
2022-10-08T11:11:18.002Z,29.92
2022-10-08T11:13:57.676Z,32.03
2022-10-08T11:16:38.519Z,30.92
2022-10-08T11:19:31.134Z,28.08
2022-10-08T11:22:05.972Z,32.63
2022-10-08T11:24:45.026Z,31.63
2022-10-08T11:27:40.220Z,27.70
2022-10-08T11:30:55.528Z,27.95
2022-10-08T11:33:25.949Z,30.98
2022-10-08T11:36:18.377Z,31.92
2022-10-08T11:38:57.510Z,27.45
2022-10-08T11:41:33.403Z,29.42
2022-10-08T11:44:04.291Z,29.13
2022-10-08T11:46:34.176Z,31.75
2022-10-08T11:49:22.997Z,28.83
2022-10-08T11:51:52.041Z,32.60
2022-10-08T11:54:32.635Z,31.23
2022-10-08T11:57:20.398Z,29.05
2022-10-08T12:00:01.075Z,35.95
2022-10-08T12:02:42.881Z,30.80
2022-10-08T12:05:50.042Z,30.92
2022-10-08T12:09:10.016Z,29.92
2022-10-08T12:11:37.052Z,29.23
2022-10-08T12:14:13.332Z,27.17
2022-10-08T12:16:56.134Z,29.50
2022-10-08T12:19:38.351Z,27.77
2022-10-08T12:22:28.285Z,30.77
2022-10-08T12:24:59.027Z,29.20
2022-10-08T12:27:32.146Z,32.03
2022-10-08T12:32:42.464Z,32.30
2022-10-08T12:35:31.941Z,28.52
2022-10-08T12:38:36.715Z,26.85
2022-10-08T12:41:39.172Z,26.38
2022-10-08T12:44:18.482Z,29.05
2022-10-08T12:46:58.259Z,27.38
2022-10-08T12:49:34.392Z,27.58
2022-10-08T12:52:19.384Z,29.20
2022-10-08T12:54:57.873Z,26.65
2022-10-08T12:57:28.383Z,31.02
2022-10-08T12:59:57.263Z,26.15
2022-10-08T13:02:43.926Z,30.58
2022-10-08T13:05:38.825Z,28.33
2022-10-08T13:08:33.608Z,26.67
2022-10-08T13:11:07.951Z,22.85
2022-10-08T13:13:41.137Z,22.35
2022-10-08T13:16:11.438Z,25.85
2022-10-08T13:18:41.411Z,25.33
2022-10-08T13:21:33.013Z,24.83
2022-10-08T13:24:20.234Z,24.60
2022-10-08T13:26:54.014Z,21.88
2022-10-08T13:29:21.455Z,22.05
2022-10-08T13:32:02.205Z,21.25
2022-10-08T13:34:46.413Z,26.38
2022-10-08T13:37:16.012Z,22.35
2022-10-08T13:39:53.701Z,21.15
2022-10-08T13:42:25.073Z,21.08
2022-10-08T13:44:52.762Z,22.25
2022-10-08T13:47:22.236Z,18.65
2022-10-08T13:49:49.608Z,23.35
2022-10-08T13:52:20.156Z,25.02
2022-10-08T13:54:48.432Z,23.88
2022-10-08T13:57:17.936Z,21.45
2022-10-08T13:59:45.388Z,22.40
2022-10-08T14:02:14.485Z,22.60
2022-10-08T14:04:41.749Z,26.00
2022-10-08T14:07:26.781Z,28.05
2022-10-08T14:09:59.538Z,25.55
2022-10-08T14:12:30.186Z,25.30
2022-10-08T14:15:00.515Z,25.20
2022-10-08T14:17:27.971Z,28.13
2022-10-08T14:19:57.404Z,30.02
2022-10-08T14:22:27.063Z,24.92
2022-10-08T14:24:54.519Z,26.15
2022-10-08T14:27:21.563Z,24.05
2022-10-08T14:29:48.764Z,25.83
2022-10-08T14:32:18.590Z,32.75
2022-10-08T14:34:45.622Z,32.08
2022-10-08T14:37:12.837Z,28.45
2022-10-08T14:39:42.850Z,26.70
2022-10-08T14:42:09.893Z,30.05
2022-10-08T14:44:37.160Z,24.20
2022-10-08T14:47:04.762Z,26.95
2022-10-08T14:49:31.882Z,24.77
2022-10-08T14:51:58.942Z,22.77
2022-10-08T14:54:27.652Z,28.45
2022-10-08T14:56:54.667Z,29.80
2022-10-08T14:59:21.815Z,23.67
2022-10-08T15:01:49.208Z,28.50
2022-10-08T15:04:18.825Z,32.05
2022-10-08T15:06:46.145Z,35.90
2022-10-08T15:09:14.286Z,32.60
2022-10-08T15:11:41.407Z,32.92
2022-10-08T15:14:08.620Z,30.02
2022-10-08T15:16:36.296Z,27.35
2022-10-08T15:19:07.384Z,28.80
2022-10-08T15:21:35.060Z,30.23
2022-10-08T15:24:04.995Z,27.52
2022-10-08T15:26:32.048Z,29.90
2022-10-08T15:29:01.438Z,27.42
2022-10-08T15:31:31.422Z,29.42
2022-10-08T15:34:00.738Z,28.40
2022-10-08T15:36:34.766Z,31.35
2022-10-08T15:39:05.637Z,29.63
2022-10-08T15:41:36.027Z,27.67
2022-10-08T15:44:16.162Z,30.38
2022-10-08T15:46:43.341Z,26.33
2022-10-08T15:49:13.526Z,28.58
2022-10-08T15:51:41.069Z,26.80
2022-10-08T15:54:10.573Z,25.35
2022-10-08T15:56:37.919Z,22.70
2022-10-08T15:59:07.606Z,28.02
2022-10-08T16:01:34.622Z,22.33
2022-10-08T16:04:02.127Z,24.00
2022-10-08T16:06:36.227Z,21.20
2022-10-08T16:09:04.077Z,23.70
2022-10-08T16:11:33.554Z,23.13
2022-10-08T16:14:03.746Z,25.30
2022-10-08T16:16:31.323Z,20.45
2022-10-08T16:19:04.188Z,20.08
2022-10-08T16:21:33.695Z,18.13
2022-10-08T16:24:01.803Z,23.80
2022-10-08T16:26:30.025Z,16.27
2022-10-08T16:28:59.717Z,18.20
2022-10-08T16:31:30.517Z,15.38
2022-10-08T16:34:04.672Z,18.65
2022-10-08T16:36:35.609Z,20.30
2022-10-08T16:39:06.068Z,14.68
2022-10-08T16:41:35.883Z,19.05
2022-10-08T16:44:12.927Z,13.57
2022-10-08T16:46:47.558Z,13.68
2022-10-08T16:49:24.219Z,14.85
2022-10-08T16:51:54.774Z,15.15
2022-10-08T16:54:25.001Z,15.82
2022-10-08T16:56:54.610Z,14.50
2022-10-08T16:59:25.006Z,13.25
2022-10-08T17:01:54.079Z,12.57
2022-10-08T17:04:22.960Z,11.32
2022-10-08T17:06:50.933Z,16.92
2022-10-08T17:09:20.581Z,12.55
2022-10-08T17:11:47.995Z,9.80
2022-10-08T17:14:18.556Z,12.05
2022-10-08T17:16:46.041Z,11.25
2022-10-08T17:19:13.482Z,13.93
2022-10-08T17:21:41.548Z,14.57
2022-10-08T17:24:11.229Z,14.27
2022-10-08T17:26:39.218Z,13.48
2022-10-08T17:29:09.289Z,13.45
2022-10-08T17:31:37.054Z,11.90
2022-10-08T17:34:05.206Z,11.05
2022-10-08T17:36:37.690Z,12.88
2022-10-08T17:39:07.635Z,12.98
2022-10-08T17:41:39.280Z,11.80
2022-10-08T17:44:08.428Z,13.27
2022-10-08T17:46:38.769Z,13.27
2022-10-08T17:49:06.219Z,14.50
2022-10-08T17:51:34.071Z,15.18
2022-10-08T17:54:04.760Z,11.43
2022-10-08T17:56:32.526Z,10.23
2022-10-08T17:59:00.284Z,12.55
2022-10-08T18:01:33.845Z,12.20
2022-10-08T18:04:09.110Z,12.77
2022-10-08T18:06:41.006Z,15.50
2022-10-08T18:09:12.124Z,21.45
2022-10-08T18:11:42.329Z,24.85
2022-10-08T18:14:09.855Z,26.63
2022-10-08T18:16:37.069Z,22.77
2022-10-08T18:19:08.747Z,19.48
2022-10-08T18:21:38.616Z,19.17
2022-10-08T18:24:08.896Z,16.77
2022-10-08T18:26:38.643Z,12.43
2022-10-08T18:29:08.341Z,13.27
2022-10-08T18:34:16.483Z,15.68
2022-10-08T18:36:45.343Z,15.75
2022-10-08T18:39:15.383Z,13.13
2022-10-08T18:41:46.673Z,10.95
2022-10-08T18:44:20.043Z,11.48
2022-10-08T18:46:47.352Z,11.50
2022-10-08T18:49:17.614Z,10.98
2022-10-08T18:51:45.364Z,9.23
2022-10-08T18:54:12.990Z,11.40
2022-10-08T18:56:42.875Z,9.77
2022-10-08T18:59:14.923Z,12.43
2022-10-08T19:01:47.003Z,9.60
2022-10-08T19:04:22.149Z,11.88
2022-10-08T19:06:51.388Z,9.13
2022-10-08T19:09:23.751Z,9.10
2022-10-08T19:11:54.216Z,9.85
2022-10-08T19:14:22.530Z,10.00
2022-10-08T19:16:50.267Z,6.30
2022-10-08T19:19:20.401Z,5.70
2022-10-08T19:21:47.678Z,6.43
2022-10-08T19:24:17.775Z,8.65
2022-10-08T19:26:48.489Z,7.85
2022-10-08T19:29:18.325Z,5.05
2022-10-08T19:31:46.291Z,5.95
2022-10-08T19:34:17.995Z,6.05
2022-10-08T19:36:45.147Z,8.82
2022-10-08T19:39:15.796Z,11.60
2022-10-08T19:41:43.502Z,4.03
2022-10-08T19:44:10.635Z,5.50
2022-10-08T19:46:38.543Z,8.38
2022-10-08T19:49:09.162Z,7.07
2022-10-08T19:51:39.822Z,10.75
2022-10-08T19:54:07.285Z,7.22
2022-10-08T19:56:34.467Z,6.32
2022-10-08T19:59:01.636Z,6.65
2022-10-08T20:01:32.283Z,4.70
2022-10-08T20:04:04.069Z,3.83
2022-10-08T20:06:33.473Z,8.65
2022-10-08T20:09:02.152Z,5.85
2022-10-08T20:11:30.963Z,9.38
2022-10-08T20:13:59.742Z,6.93
2022-10-08T20:16:32.820Z,6.13
2022-10-08T20:21:30.160Z,10.60
2022-10-08T20:23:57.554Z,4.93
2022-10-08T20:26:32.153Z,10.60
2022-10-08T20:29:05.629Z,9.52
2022-10-08T20:31:38.307Z,6.55
2022-10-08T20:34:09.607Z,4.82
2022-10-08T20:36:37.351Z,12.95
2022-10-08T20:39:04.928Z,9.63
2022-10-08T20:41:32.585Z,7.45
2022-10-08T20:44:03.293Z,8.30
2022-10-08T20:46:32.583Z,7.43
2022-10-08T20:49:00.114Z,7.55
2022-10-08T20:51:29.135Z,7.70
2022-10-08T20:54:01.834Z,6.97
2022-10-08T20:56:37.089Z,6.50
2022-10-08T20:59:07.678Z,8.02
2022-10-08T21:01:38.892Z,9.68
2022-10-08T21:04:06.957Z,7.95
2022-10-08T21:06:46.425Z,7.15
2022-10-08T21:09:15.778Z,11.65
2022-10-08T21:11:43.950Z,8.85
2022-10-08T21:14:14.755Z,9.25
2022-10-08T21:16:44.459Z,12.10
2022-10-08T21:19:14.212Z,8.75
2022-10-08T21:21:41.662Z,6.95
2022-10-08T21:24:09.019Z,5.43
2022-10-08T21:26:40.939Z,9.52
2022-10-08T21:29:13.672Z,10.00
2022-10-08T21:31:42.028Z,8.20
2022-10-08T21:34:11.782Z,4.72
2022-10-08T21:36:40.135Z,6.97
2022-10-08T21:39:10.552Z,9.20
2022-10-08T21:41:37.669Z,9.15
2022-10-08T21:44:08.478Z,6.35
2022-10-08T21:46:39.917Z,6.75
2022-10-08T21:49:27.361Z,8.63
2022-10-08T21:51:57.234Z,10.40
2022-10-08T21:54:24.631Z,6.80
2022-10-08T21:56:56.063Z,5.75
2022-10-08T21:59:23.366Z,12.60
2022-10-08T22:01:51.270Z,8.57
2022-10-08T22:04:22.327Z,6.90
2022-10-08T22:06:54.376Z,8.35
2022-10-08T22:09:27.579Z,10.73
2022-10-08T22:11:56.966Z,10.68
2022-10-08T22:14:24.314Z,11.68
2022-10-08T22:16:54.286Z,6.47
2022-10-08T22:19:21.682Z,7.72
2022-10-08T22:21:49.016Z,8.88
2022-10-08T22:24:18.317Z,9.30
2022-10-08T22:26:46.973Z,9.00
2022-10-08T22:29:14.838Z,11.43
2022-10-08T22:31:42.235Z,10.60
2022-10-08T22:34:10.394Z,8.32
2022-10-08T22:36:43.722Z,9.68
2022-10-08T22:39:13.531Z,7.10
2022-10-08T22:41:41.119Z,12.82
2022-10-08T22:44:08.247Z,8.98
2022-10-08T22:46:39.888Z,8.52
2022-10-08T22:49:11.597Z,11.80
2022-10-08T22:51:44.130Z,11.85
2022-10-08T22:54:12.470Z,6.50
2022-10-08T22:56:42.165Z,8.02
2022-10-08T22:59:10.300Z,11.63
2022-10-08T23:01:37.487Z,11.40
2022-10-08T23:04:04.995Z,8.45
2022-10-08T23:06:36.236Z,6.50
2022-10-08T23:09:11.331Z,10.95
2022-10-08T23:11:39.143Z,7.18
2022-10-08T23:14:06.551Z,7.38
2022-10-08T23:16:35.915Z,7.65
2022-10-08T23:19:10.053Z,5.85
2022-10-08T23:21:38.023Z,8.90
2022-10-08T23:24:05.920Z,8.13
2022-10-08T23:26:33.157Z,11.07
2022-10-08T23:29:01.427Z,9.18
2022-10-08T23:31:32.339Z,11.35
2022-10-08T23:34:00.278Z,8.00
2022-10-08T23:36:28.892Z,8.65
2022-10-08T23:38:56.627Z,10.85
2022-10-08T23:41:24.428Z,8.18
2022-10-08T23:43:52.491Z,11.50
2022-10-08T23:46:24.956Z,8.15
2022-10-08T23:48:52.481Z,8.93
2022-10-08T23:51:21.591Z,8.88
2022-10-08T23:53:50.278Z,9.23
2022-10-08T23:56:20.544Z,8.25
2022-10-08T23:58:48.127Z,8.38
